TimeEDT,TemperatureF,Dew PointF,Humidity,Sea Level PressureIn,VisibilityMPH,Wind Direction,Wind SpeedMPH,Gust SpeedMPH,PrecipitationIn,Events,Conditions,WindDirDegrees,DateUTC
12:53 AM,32.0,25.0,75,30.35,10.0,Calm,Calm,-,N/A,,Clear,0,2013-03-28 04:53:00
1:53 AM,30.9,25.0,79,30.34,10.0,Calm,Calm,-,N/A,,Clear,0,2013-03-28 05:53:00
2:53 AM,30.0,25.0,82,30.35,10.0,Calm,Calm,-,N/A,,Clear,0,2013-03-28 06:53:00
3:53 AM,30.0,25.0,82,30.34,10.0,Calm,Calm,-,N/A,,Clear,0,2013-03-28 07:53:00
4:53 AM,28.0,24.1,85,30.35,10.0,Calm,Calm,-,N/A,,Clear,0,2013-03-28 08:53:00
5:53 AM,28.0,24.1,85,30.35,10.0,Calm,Calm,-,N/A,,Clear,0,2013-03-28 09:53:00
6:53 AM,28.0,23.0,81,30.37,10.0,Calm,Calm,-,N/A,,Clear,0,2013-03-28 10:53:00
7:53 AM,28.0,23.0,81,30.39,10.0,Calm,Calm,-,N/A,,Clear,0,2013-03-28 11:53:00
8:53 AM,32.0,27.0,82,30.40,10.0,Calm,Calm,-,N/A,,Scattered Clouds,0,2013-03-28 12:53:00
9:53 AM,39.0,27.0,62,30.40,10.0,Calm,Calm,-,N/A,,Clear,0,2013-03-28 13:53:00
10:53 AM,45.0,23.0,42,30.40,10.0,Calm,Calm,-,N/A,,Clear,0,2013-03-28 14:53:00
11:53 AM,48.0,19.9,33,30.39,10.0,Calm,Calm,-,N/A,,Clear,0,2013-03-28 15:53:00
12:53 PM,48.9,19.0,31,30.38,10.0,Calm,Calm,-,N/A,,Clear,0,2013-03-28 16:53:00
1:53 PM,53.1,18.0,25,30.35,10.0,Calm,Calm,-,N/A,,Clear,0,2013-03-28 17:53:00
2:53 PM,57.0,15.1,19,30.32,10.0,NNW,8.1,-,N/A,,Clear,330,2013-03-28 18:53:00
3:53 PM,57.9,15.1,19,30.30,10.0,Variable,4.6,-,N/A,,Clear,0,2013-03-28 19:53:00
4:53 PM,59.0,15.1,18,30.29,10.0,Variable,3.5,-,N/A,,Clear,0,2013-03-28 20:53:00
5:53 PM,57.9,18.0,21,30.27,10.0,Variable,5.8,-,N/A,,Clear,0,2013-03-28 21:53:00
6:53 PM,57.0,15.1,19,30.28,10.0,Calm,Calm,-,N/A,,Clear,0,2013-03-28 22:53:00
7:53 PM,54.0,17.1,23,30.31,10.0,West,4.6,-,N/A,,Clear,280,2013-03-28 23:53:00
8:53 PM,50.0,19.0,29,30.32,10.0,Calm,Calm,-,N/A,,Clear,0,2013-03-29 00:53:00
9:53 PM,45.0,24.1,44,30.34,10.0,Calm,Calm,-,N/A,,Clear,0,2013-03-29 01:53:00
10:53 PM,41.0,27.0,57,30.35,10.0,Calm,Calm,-,N/A,,Clear,0,2013-03-29 02:53:00
11:53 PM,37.9,27.0,65,30.35,10.0,Calm,Calm,-,N/A,,Clear,0,2013-03-29 03:53:00